sensor_id;sensor_type;location;lat;lon;timestamp;pressure;altitude;pressure_sealevel;temperature;humidity
7802;BME280;3945;48.952;9.506;2022-09-03T00:01:02;97613.09;;;17.46;55.46
7802;BME280;3945;48.952;9.506;2022-09-03T00:03:30;97608.88;;;17.40;55.39
7802;BME280;3945;48.952;9.506;2022-09-03T00:06:02;97613.75;;;17.38;55.04
7802;BME280;3945;48.952;9.506;2022-09-03T00:08:32;97606.56;;;17.34;55.32
7802;BME280;3945;48.952;9.506;2022-09-03T00:11:02;97600.16;;;17.30;55.58
7802;BME280;3945;48.952;9.506;2022-09-03T00:13:32;97606.13;;;17.27;55.69
7802;BME280;3945;48.952;9.506;2022-09-03T00:15:58;97604.81;;;17.24;55.87
7802;BME280;3945;48.952;9.506;2022-09-03T00:18:26;97595.72;;;17.20;56.03
7802;BME280;3945;48.952;9.506;2022-09-03T00:20:55;97598.19;;;17.16;56.23
7802;BME280;3945;48.952;9.506;2022-09-03T00:23:24;97596.09;;;17.13;56.07
7802;BME280;3945;48.952;9.506;2022-09-03T00:25:53;97599.94;;;17.07;56.27
7802;BME280;3945;48.952;9.506;2022-09-03T00:28:23;97601.03;;;17.06;56.62
7802;BME280;3945;48.952;9.506;2022-09-03T00:30:55;97600.81;;;17.03;56.51
7802;BME280;3945;48.952;9.506;2022-09-03T00:33:26;97591.94;;;17.02;56.44
7802;BME280;3945;48.952;9.506;2022-09-03T00:36:02;97596.22;;;17.03;56.23
7802;BME280;3945;48.952;9.506;2022-09-03T00:38:30;97599.50;;;17.00;56.20
7802;BME280;3945;48.952;9.506;2022-09-03T00:41:00;97597.13;;;16.99;56.62
7802;BME280;3945;48.952;9.506;2022-09-03T00:43:36;97591.44;;;17.00;56.44
7802;BME280;3945;48.952;9.506;2022-09-03T00:46:12;97597.91;;;16.99;57.01
7802;BME280;3945;48.952;9.506;2022-09-03T00:48:46;97591.22;;;16.97;57.14
7802;BME280;3945;48.952;9.506;2022-09-03T00:51:15;97601.97;;;16.97;57.21
7802;BME280;3945;48.952;9.506;2022-09-03T00:53:50;97601.25;;;16.91;57.27
7802;BME280;3945;48.952;9.506;2022-09-03T00:56:22;97597.53;;;16.87;57.29
7802;BME280;3945;48.952;9.506;2022-09-03T00:58:54;97596.72;;;16.87;57.28
7802;BME280;3945;48.952;9.506;2022-09-03T01:01:27;97590.84;;;16.85;57.73
7802;BME280;3945;48.952;9.506;2022-09-03T01:03:57;97584.97;;;16.83;58.33
7802;BME280;3945;48.952;9.506;2022-09-03T01:06:32;97583.44;;;16.76;58.34
7802;BME280;3945;48.952;9.506;2022-09-03T01:09:08;97585.03;;;16.77;58.17
7802;BME280;3945;48.952;9.506;2022-09-03T01:11:38;97588.72;;;16.82;57.60
7802;BME280;3945;48.952;9.506;2022-09-03T01:14:13;97586.56;;;16.84;57.79
7802;BME280;3945;48.952;9.506;2022-09-03T01:16:45;97588.09;;;16.90;57.54
7802;BME280;3945;48.952;9.506;2022-09-03T01:19:24;97580.53;;;16.92;57.54
7802;BME280;3945;48.952;9.506;2022-09-03T01:22:04;97584.53;;;16.94;57.26
7802;BME280;3945;48.952;9.506;2022-09-03T01:24:53;97585.56;;;16.98;57.49
7802;BME280;3945;48.952;9.506;2022-09-03T01:27:29;97583.88;;;17.02;56.89
7802;BME280;3945;48.952;9.506;2022-09-03T01:30:00;97578.22;;;17.04;56.95
7802;BME280;3945;48.952;9.506;2022-09-03T01:32:30;97581.91;;;17.08;56.47
7802;BME280;3945;48.952;9.506;2022-09-03T01:35:03;97581.34;;;17.11;56.53
7802;BME280;3945;48.952;9.506;2022-09-03T01:37:34;97584.53;;;17.13;56.41
7802;BME280;3945;48.952;9.506;2022-09-03T01:40:09;97586.63;;;17.16;56.53
7802;BME280;3945;48.952;9.506;2022-09-03T01:42:41;97579.66;;;17.15;56.50
7802;BME280;3945;48.952;9.506;2022-09-03T01:45:16;97580.16;;;17.17;56.53
7802;BME280;3945;48.952;9.506;2022-09-03T01:47:51;97585.25;;;17.18;56.50
7802;BME280;3945;48.952;9.506;2022-09-03T01:50:25;97585.78;;;17.21;56.51
7802;BME280;3945;48.952;9.506;2022-09-03T01:53:01;97590.84;;;17.22;56.00
7802;BME280;3945;48.952;9.506;2022-09-03T01:55:30;97592.16;;;17.25;56.62
7802;BME280;3945;48.952;9.506;2022-09-03T01:57:58;97596.75;;;17.24;56.90
7802;BME280;3945;48.952;9.506;2022-09-03T02:00:27;97593.47;;;17.27;56.37
7802;BME280;3945;48.952;9.506;2022-09-03T02:02:59;97592.41;;;17.28;56.51
7802;BME280;3945;48.952;9.506;2022-09-03T02:05:28;97601.25;;;17.29;56.43
7802;BME280;3945;48.952;9.506;2022-09-03T02:07:55;97603.94;;;17.29;56.90
7802;BME280;3945;48.952;9.506;2022-09-03T02:10:24;97605.53;;;17.30;56.73
7802;BME280;3945;48.952;9.506;2022-09-03T02:12:55;97601.56;;;17.27;56.41
7802;BME280;3945;48.952;9.506;2022-09-03T02:15:22;97598.84;;;17.27;56.80
7802;BME280;3945;48.952;9.506;2022-09-03T02:17:52;97602.91;;;17.25;57.09
7802;BME280;3945;48.952;9.506;2022-09-03T02:20:21;97597.34;;;17.21;57.06
7802;BME280;3945;48.952;9.506;2022-09-03T02:22:48;97598.91;;;17.22;56.66
7802;BME280;3945;48.952;9.506;2022-09-03T02:25:14;97605.59;;;17.25;56.94
7802;BME280;3945;48.952;9.506;2022-09-03T02:27:41;97611.50;;;17.27;56.93
7802;BME280;3945;48.952;9.506;2022-09-03T02:30:08;97605.84;;;17.28;57.09
7802;BME280;3945;48.952;9.506;2022-09-03T02:32:35;97607.72;;;17.28;57.03
7802;BME280;3945;48.952;9.506;2022-09-03T02:35:02;97603.94;;;17.29;57.11
7802;BME280;3945;48.952;9.506;2022-09-03T02:37:29;97606.31;;;17.30;57.12
7802;BME280;3945;48.952;9.506;2022-09-03T02:39:55;97601.56;;;17.27;57.54
7802;BME280;3945;48.952;9.506;2022-09-03T02:42:21;97611.50;;;17.27;57.55
7802;BME280;3945;48.952;9.506;2022-09-03T02:44:49;97607.22;;;17.26;57.47
7802;BME280;3945;48.952;9.506;2022-09-03T02:47:18;97604.00;;;17.24;57.47
7802;BME280;3945;48.952;9.506;2022-09-03T02:49:45;97608.59;;;17.23;57.11
7802;BME280;3945;48.952;9.506;2022-09-03T02:52:13;97605.31;;;17.26;57.54
7802;BME280;3945;48.952;9.506;2022-09-03T02:54:39;97604.00;;;17.24;57.79
7802;BME280;3945;48.952;9.506;2022-09-03T02:57:06;97608.59;;;17.23;57.93
7802;BME280;3945;48.952;9.506;2022-09-03T02:59:32;97609.66;;;17.22;57.89
7802;BME280;3945;48.952;9.506;2022-09-03T03:01:59;97608.91;;;17.22;58.00
7802;BME280;3945;48.952;9.506;2022-09-03T03:04:25;97597.09;;;17.17;58.35
7802;BME280;3945;48.952;9.506;2022-09-03T03:06:52;97594.41;;;17.17;58.55
7802;BME280;3945;48.952;9.506;2022-09-03T03:09:19;97589.03;;;17.17;58.34
7802;BME280;3945;48.952;9.506;2022-09-03T03:11:46;97591.22;;;17.15;58.82
7802;BME280;3945;48.952;9.506;2022-09-03T03:14:14;97594.97;;;17.14;58.32
7802;BME280;3945;48.952;9.506;2022-09-03T03:16:40;97592.63;;;17.13;58.23
7802;BME280;3945;48.952;9.506;2022-09-03T03:19:06;97601.75;;;17.12;58.60
7802;BME280;3945;48.952;9.506;2022-09-03T03:21:33;97601.75;;;17.12;58.63
7802;BME280;3945;48.952;9.506;2022-09-03T03:23:59;97598.28;;;17.11;58.31
7802;BME280;3945;48.952;9.506;2022-09-03T03:26:28;97594.56;;;17.07;58.40
7802;BME280;3945;48.952;9.506;2022-09-03T03:28:54;97601.84;;;17.07;58.52
7802;BME280;3945;48.952;9.506;2022-09-03T03:31:21;97604.53;;;17.07;58.69
7802;BME280;3945;48.952;9.506;2022-09-03T03:33:49;97617.19;;;17.06;58.65
7802;BME280;3945;48.952;9.506;2022-09-03T03:36:16;97613.69;;;17.06;58.95
7802;BME280;3945;48.952;9.506;2022-09-03T03:38:43;97620.44;;;17.03;58.98
7802;BME280;3945;48.952;9.506;2022-09-03T03:41:09;97614.84;;;17.00;59.11
7802;BME280;3945;48.952;9.506;2022-09-03T03:43:37;97612.44;;;16.98;59.38
7802;BME280;3945;48.952;9.506;2022-09-03T03:46:04;97616.22;;;16.97;59.89
7802;BME280;3945;48.952;9.506;2022-09-03T03:48:30;97615.94;;;16.99;59.76
7802;BME280;3945;48.952;9.506;2022-09-03T03:50:59;97618.31;;;17.00;60.04
7802;BME280;3945;48.952;9.506;2022-09-03T03:53:25;97621.59;;;16.97;60.10
7802;BME280;3945;48.952;9.506;2022-09-03T03:55:54;97616.78;;;16.94;60.92
7802;BME280;3945;48.952;9.506;2022-09-03T03:58:21;97611.19;;;16.91;60.81
7802;BME280;3945;48.952;9.506;2022-09-03T04:00:48;97617.75;;;16.85;60.88
7802;BME280;3945;48.952;9.506;2022-09-03T04:03:15;97610.75;;;16.84;60.72
7802;BME280;3945;48.952;9.506;2022-09-03T04:05:41;97618.38;;;16.76;60.93
7802;BME280;3945;48.952;9.506;2022-09-03T04:08:07;97618.41;;;16.71;61.03
7802;BME280;3945;48.952;9.506;2022-09-03T04:10:34;97620.09;;;16.67;61.54
7802;BME280;3945;48.952;9.506;2022-09-03T04:13:00;97608.00;;;16.65;61.01
7802;BME280;3945;48.952;9.506;2022-09-03T04:15:27;97616.06;;;16.65;61.41
7802;BME280;3945;48.952;9.506;2022-09-03T04:17:54;97612.31;;;16.66;61.94
7802;BME280;3945;48.952;9.506;2022-09-03T04:20:21;97627.13;;;16.63;62.25
7802;BME280;3945;48.952;9.506;2022-09-03T04:22:47;97628.72;;;16.64;61.90
7802;BME280;3945;48.952;9.506;2022-09-03T04:25:13;97624.44;;;16.63;61.36
7802;BME280;3945;48.952;9.506;2022-09-03T04:27:40;97614.19;;;16.65;61.34
7802;BME280;3945;48.952;9.506;2022-09-03T04:30:06;97619.28;;;16.67;61.74
7802;BME280;3945;48.952;9.506;2022-09-03T04:32:33;97612.03;;;16.67;61.68
7802;BME280;3945;48.952;9.506;2022-09-03T04:35:18;97617.13;;;16.69;61.81
7802;BME280;3945;48.952;9.506;2022-09-03T04:37:45;97610.66;;;16.70;61.65
7802;BME280;3945;48.952;9.506;2022-09-03T04:40:11;97611.47;;;16.70;61.52
7802;BME280;3945;48.952;9.506;2022-09-03T04:42:37;97616.53;;;16.72;61.99
7802;BME280;3945;48.952;9.506;2022-09-03T04:45:04;97624.81;;;16.75;61.86
7802;BME280;3945;48.952;9.506;2022-09-03T04:47:30;97617.31;;;16.72;61.88
7802;BME280;3945;48.952;9.506;2022-09-03T04:49:57;97626.19;;;16.73;61.82
7802;BME280;3945;48.952;9.506;2022-09-03T04:52:27;97625.09;;;16.74;61.69
7802;BME280;3945;48.952;9.506;2022-09-03T04:54:53;97627.22;;;16.77;61.55
7802;BME280;3945;48.952;9.506;2022-09-03T04:57:20;97628.84;;;16.78;61.36
7802;BME280;3945;48.952;9.506;2022-09-03T04:59:46;97615.09;;;16.79;61.63
7802;BME280;3945;48.952;9.506;2022-09-03T05:02:13;97618.09;;;16.78;61.90
7802;BME280;3945;48.952;9.506;2022-09-03T05:04:39;97621.22;;;16.85;61.73
7802;BME280;3945;48.952;9.506;2022-09-03T05:07:05;97614.44;;;16.88;61.82
7802;BME280;3945;48.952;9.506;2022-09-03T05:09:33;97606.09;;;16.89;61.70
7802;BME280;3945;48.952;9.506;2022-09-03T05:12:00;97622.16;;;16.94;61.85
7802;BME280;3945;48.952;9.506;2022-09-03T05:14:26;97624.81;;;16.99;62.30
7802;BME280;3945;48.952;9.506;2022-09-03T05:16:52;97623.41;;;17.02;62.23
7802;BME280;3945;48.952;9.506;2022-09-03T05:19:18;97624.72;;;17.04;62.23
7802;BME280;3945;48.952;9.506;2022-09-03T05:21:45;97627.13;;;17.06;62.07
7802;BME280;3945;48.952;9.506;2022-09-03T05:24:11;97621.44;;;17.07;62.36
7802;BME280;3945;48.952;9.506;2022-09-03T05:26:40;97619.28;;;17.09;62.62
7802;BME280;3945;48.952;9.506;2022-09-03T05:29:06;97623.00;;;17.13;62.84
7802;BME280;3945;48.952;9.506;2022-09-03T05:31:33;97617.03;;;17.16;62.66
7802;BME280;3945;48.952;9.506;2022-09-03T05:34:01;97616.16;;;17.21;62.89
7802;BME280;3945;48.952;9.506;2022-09-03T05:36:28;97617.75;;;17.22;62.54
7802;BME280;3945;48.952;9.506;2022-09-03T05:38:56;97614.47;;;17.25;62.56
7802;BME280;3945;48.952;9.506;2022-09-03T05:41:23;97616.59;;;17.28;63.00
7802;BME280;3945;48.952;9.506;2022-09-03T05:43:51;97619.56;;;17.27;63.21
7802;BME280;3945;48.952;9.506;2022-09-03T05:46:19;97617.97;;;17.26;63.22
7802;BME280;3945;48.952;9.506;2022-09-03T05:48:45;97622.03;;;17.23;63.86
7802;BME280;3945;48.952;9.506;2022-09-03T05:51:13;97621.75;;;17.25;64.22
7802;BME280;3945;48.952;9.506;2022-09-03T05:53:40;97625.75;;;17.27;64.37
7802;BME280;3945;48.952;9.506;2022-09-03T05:56:08;97619.50;;;17.32;64.44
7802;BME280;3945;48.952;9.506;2022-09-03T05:58:35;97622.63;;;17.39;64.37
7802;BME280;3945;48.952;9.506;2022-09-03T06:01:09;97628.44;;;17.46;64.37
7802;BME280;3945;48.952;9.506;2022-09-03T06:03:36;97634.75;;;17.55;64.14
7802;BME280;3945;48.952;9.506;2022-09-03T06:06:03;97632.44;;;17.67;64.02
7802;BME280;3945;48.952;9.506;2022-09-03T06:08:31;97636.75;;;17.82;64.07
7802;BME280;3945;48.952;9.506;2022-09-03T06:10:57;97637.31;;;17.98;63.32
7802;BME280;3945;48.952;9.506;2022-09-03T06:13:24;97635.97;;;18.14;62.30
7802;BME280;3945;48.952;9.506;2022-09-03T06:15:54;97633.28;;;18.27;62.22
7802;BME280;3945;48.952;9.506;2022-09-03T06:18:22;97635.19;;;18.41;62.20
7802;BME280;3945;48.952;9.506;2022-09-03T06:20:52;97642.78;;;18.52;61.21
7802;BME280;3945;48.952;9.506;2022-09-03T06:23:18;97638.16;;;18.58;60.33
7802;BME280;3945;48.952;9.506;2022-09-03T06:25:45;97648.00;;;18.62;60.35
7802;BME280;3945;48.952;9.506;2022-09-03T06:28:11;97644.91;;;18.69;60.28
7802;BME280;3945;48.952;9.506;2022-09-03T06:30:38;97641.81;;;18.76;60.95
7802;BME280;3945;48.952;9.506;2022-09-03T06:33:05;97632.63;;;18.77;61.00
7802;BME280;3945;48.952;9.506;2022-09-03T06:35:33;97630.63;;;18.82;60.66
7802;BME280;3945;48.952;9.506;2022-09-03T06:38:01;97638.63;;;18.87;61.11
7802;BME280;3945;48.952;9.506;2022-09-03T06:40:27;97645.00;;;18.91;60.68
7802;BME280;3945;48.952;9.506;2022-09-03T06:42:55;97642.81;;;18.93;60.83
7802;BME280;3945;48.952;9.506;2022-09-03T06:45:26;97638.69;;;18.96;60.90
7802;BME280;3945;48.952;9.506;2022-09-03T06:47:53;97645.28;;;19.03;60.85
7802;BME280;3945;48.952;9.506;2022-09-03T06:50:19;97644.56;;;19.11;61.25
7802;BME280;3945;48.952;9.506;2022-09-03T06:52:50;97644.47;;;19.17;61.43
7802;BME280;3945;48.952;9.506;2022-09-03T06:55:17;97637.25;;;19.26;60.78
7802;BME280;3945;48.952;9.506;2022-09-03T06:57:44;97640.63;;;19.31;60.81
7802;BME280;3945;48.952;9.506;2022-09-03T07:00:11;97627.84;;;19.37;60.64
7802;BME280;3945;48.952;9.506;2022-09-03T07:02:37;97633.00;;;19.47;60.09
7802;BME280;3945;48.952;9.506;2022-09-03T07:05:05;97635.00;;;19.55;60.08
7802;BME280;3945;48.952;9.506;2022-09-03T07:07:32;97635.38;;;19.62;60.16
7802;BME280;3945;48.952;9.506;2022-09-03T07:09:59;97638.13;;;19.71;59.44
7802;BME280;3945;48.952;9.506;2022-09-03T07:12:26;97653.59;;;19.79;59.66
7802;BME280;3945;48.952;9.506;2022-09-03T07:14:52;97641.56;;;19.85;60.33
7802;BME280;3945;48.952;9.506;2022-09-03T07:17:19;97642.72;;;19.93;60.76
7802;BME280;3945;48.952;9.506;2022-09-03T07:19:45;97638.50;;;20.00;59.87
7802;BME280;3945;48.952;9.506;2022-09-03T07:22:11;97631.25;;;20.09;60.03
7802;BME280;3945;48.952;9.506;2022-09-03T07:24:37;97634.78;;;20.18;59.14
7802;BME280;3945;48.952;9.506;2022-09-03T07:27:06;97641.03;;;20.27;59.27
7802;BME280;3945;48.952;9.506;2022-09-03T07:29:33;97641.91;;;20.37;58.91
7802;BME280;3945;48.952;9.506;2022-09-03T07:31:59;97648.47;;;20.44;58.23
7802;BME280;3945;48.952;9.506;2022-09-03T07:34:25;97651.81;;;20.50;58.37
7802;BME280;3945;48.952;9.506;2022-09-03T07:36:53;97649.78;;;20.55;58.22
7802;BME280;3945;48.952;9.506;2022-09-03T07:39:19;97650.41;;;20.61;58.35
7802;BME280;3945;48.952;9.506;2022-09-03T07:41:46;97654.41;;;20.63;58.48
7802;BME280;3945;48.952;9.506;2022-09-03T07:44:14;97655.88;;;20.70;58.25
7802;BME280;3945;48.952;9.506;2022-09-03T07:46:43;97660.34;;;20.74;57.85
7802;BME280;3945;48.952;9.506;2022-09-03T07:49:11;97649.19;;;20.76;58.69
7802;BME280;3945;48.952;9.506;2022-09-03T07:51:38;97649.53;;;20.74;58.26
7802;BME280;3945;48.952;9.506;2022-09-03T07:54:05;97650.50;;;20.78;58.13
7802;BME280;3945;48.952;9.506;2022-09-03T07:56:34;97644.78;;;20.80;58.04
7802;BME280;3945;48.952;9.506;2022-09-03T07:59:01;97637.16;;;20.82;58.81
7802;BME280;3945;48.952;9.506;2022-09-03T08:01:29;97644.97;;;20.92;58.83
7802;BME280;3945;48.952;9.506;2022-09-03T08:03:56;97652.16;;;21.05;58.20
7802;BME280;3945;48.952;9.506;2022-09-03T08:06:24;97656.69;;;21.27;57.24
7802;BME280;3945;48.952;9.506;2022-09-03T08:08:53;97652.22;;;21.48;57.18
7802;BME280;3945;48.952;9.506;2022-09-03T08:11:21;97658.94;;;21.68;56.75
7802;BME280;3945;48.952;9.506;2022-09-03T08:13:48;97655.09;;;21.86;56.42
7802;BME280;3945;48.952;9.506;2022-09-03T08:16:18;97658.59;;;22.12;55.50
7802;BME280;3945;48.952;9.506;2022-09-03T08:18:46;97661.78;;;22.23;55.44
7802;BME280;3945;48.952;9.506;2022-09-03T08:21:15;97663.31;;;22.41;56.08
7802;BME280;3945;48.952;9.506;2022-09-03T08:23:52;97662.13;;;22.59;55.72
7802;BME280;3945;48.952;9.506;2022-09-03T08:26:20;97666.81;;;22.88;55.39
7802;BME280;3945;48.952;9.506;2022-09-03T08:28:47;97663.34;;;23.09;54.06
7802;BME280;3945;48.952;9.506;2022-09-03T08:31:14;97672.78;;;23.11;53.51
7802;BME280;3945;48.952;9.506;2022-09-03T08:33:41;97670.38;;;23.10;54.33
7802;BME280;3945;48.952;9.506;2022-09-03T08:36:11;97668.94;;;23.12;53.87
7802;BME280;3945;48.952;9.506;2022-09-03T08:38:38;97663.63;;;23.16;53.83
7802;BME280;3945;48.952;9.506;2022-09-03T08:41:05;97659.59;;;23.22;53.40
7802;BME280;3945;48.952;9.506;2022-09-03T08:43:32;97656.03;;;23.30;53.31
7802;BME280;3945;48.952;9.506;2022-09-03T08:46:03;97661.16;;;23.31;52.70
7802;BME280;3945;48.952;9.506;2022-09-03T08:48:29;97666.84;;;23.39;53.94
7802;BME280;3945;48.952;9.506;2022-09-03T08:50:58;97665.16;;;23.55;53.62
7802;BME280;3945;48.952;9.506;2022-09-03T08:53:27;97672.84;;;23.73;53.91
7802;BME280;3945;48.952;9.506;2022-09-03T08:55:55;97663.28;;;23.88;53.33
7802;BME280;3945;48.952;9.506;2022-09-03T08:58:25;97668.03;;;24.12;52.47
7802;BME280;3945;48.952;9.506;2022-09-03T09:00:54;97664.72;;;24.39;51.66
7802;BME280;3945;48.952;9.506;2022-09-03T09:03:32;97664.97;;;24.59;51.40
7802;BME280;3945;48.952;9.506;2022-09-03T09:06:04;97669.19;;;24.56;50.75
7802;BME280;3945;48.952;9.506;2022-09-03T09:08:35;97674.41;;;24.61;51.19
7802;BME280;3945;48.952;9.506;2022-09-03T09:11:05;97662.84;;;24.88;50.24
7802;BME280;3945;48.952;9.506;2022-09-03T09:13:37;97681.00;;;25.09;50.40
7802;BME280;3945;48.952;9.506;2022-09-03T09:16:09;97682.28;;;25.11;49.67
7802;BME280;3945;48.952;9.506;2022-09-03T09:18:43;97680.56;;;24.95;49.40
7802;BME280;3945;48.952;9.506;2022-09-03T09:21:15;97683.13;;;24.79;50.17
7802;BME280;3945;48.952;9.506;2022-09-03T09:23:45;97692.66;;;24.61;50.29
7802;BME280;3945;48.952;9.506;2022-09-03T09:26:12;97692.28;;;24.50;51.09
7802;BME280;3945;48.952;9.506;2022-09-03T09:28:40;97685.13;;;24.45;51.08
7802;BME280;3945;48.952;9.506;2022-09-03T09:31:09;97693.28;;;24.45;51.74
7802;BME280;3945;48.952;9.506;2022-09-03T09:33:39;97690.72;;;24.49;51.55
7802;BME280;3945;48.952;9.506;2022-09-03T09:36:06;97686.63;;;24.55;50.93
7802;BME280;3945;48.952;9.506;2022-09-03T09:38:34;97693.78;;;24.60;51.05
7802;BME280;3945;48.952;9.506;2022-09-03T09:41:08;97682.78;;;24.68;50.59
7802;BME280;3945;48.952;9.506;2022-09-03T09:43:35;97682.47;;;24.82;50.56
7802;BME280;3945;48.952;9.506;2022-09-03T09:46:05;97681.00;;;24.84;51.75
7802;BME280;3945;48.952;9.506;2022-09-03T09:48:32;97684.22;;;24.99;50.58
7802;BME280;3945;48.952;9.506;2022-09-03T09:51:03;97674.22;;;25.03;51.12
7802;BME280;3945;48.952;9.506;2022-09-03T09:53:30;97680.78;;;25.02;50.08
7802;BME280;3945;48.952;9.506;2022-09-03T09:55:57;97666.50;;;25.05;49.76
7802;BME280;3945;48.952;9.506;2022-09-03T09:58:26;97674.66;;;25.17;50.27
7802;BME280;3945;48.952;9.506;2022-09-03T10:00:59;97668.69;;;25.51;48.96
7802;BME280;3945;48.952;9.506;2022-09-03T10:03:27;97666.94;;;25.83;48.22
7802;BME280;3945;48.952;9.506;2022-09-03T10:05:57;97687.56;;;25.96;47.64
7802;BME280;3945;48.952;9.506;2022-09-03T10:08:25;97673.84;;;25.93;48.17
7802;BME280;3945;48.952;9.506;2022-09-03T10:10:52;97680.31;;;25.88;47.69
7802;BME280;3945;48.952;9.506;2022-09-03T10:13:19;97674.13;;;25.76;47.66
7802;BME280;3945;48.952;9.506;2022-09-03T10:15:51;97672.47;;;25.59;48.81
7802;BME280;3945;48.952;9.506;2022-09-03T10:18:22;97671.28;;;25.72;48.20
7802;BME280;3945;48.952;9.506;2022-09-03T10:20:53;97667.81;;;25.87;48.47
7802;BME280;3945;48.952;9.506;2022-09-03T10:23:23;97656.91;;;26.15;49.23
7802;BME280;3945;48.952;9.506;2022-09-03T10:25:55;97656.09;;;26.42;48.36
7802;BME280;3945;48.952;9.506;2022-09-03T10:28:28;97661.22;;;26.60;47.19
7802;BME280;3945;48.952;9.506;2022-09-03T10:31:00;97660.19;;;26.64;46.28
7802;BME280;3945;48.952;9.506;2022-09-03T10:33:31;97664.22;;;26.55;45.36
7802;BME280;3945;48.952;9.506;2022-09-03T10:36:03;97659.63;;;26.59;45.27
7802;BME280;3945;48.952;9.506;2022-09-03T10:38:32;97655.56;;;26.53;46.69
7802;BME280;3945;48.952;9.506;2022-09-03T10:41:02;97654.44;;;26.69;46.32
7802;BME280;3945;48.952;9.506;2022-09-03T10:43:39;97650.91;;;26.85;45.98
7802;BME280;3945;48.952;9.506;2022-09-03T10:46:14;97651.19;;;26.95;45.34
7802;BME280;3945;48.952;9.506;2022-09-03T10:48:49;97648.03;;;26.93;45.40
7802;BME280;3945;48.952;9.506;2022-09-03T10:51:22;97653.19;;;26.82;45.39
7802;BME280;3945;48.952;9.506;2022-09-03T10:53:56;97643.41;;;26.81;45.77
7802;BME280;3945;48.952;9.506;2022-09-03T10:56:29;97646.69;;;27.03;45.62
7802;BME280;3945;48.952;9.506;2022-09-03T10:59:03;97646.59;;;27.15;45.11
7802;BME280;3945;48.952;9.506;2022-09-03T11:01:35;97643.84;;;27.15;45.42
7802;BME280;3945;48.952;9.506;2022-09-03T11:04:09;97650.81;;;27.12;45.43
7802;BME280;3945;48.952;9.506;2022-09-03T11:06:42;97654.25;;;27.09;45.75
7802;BME280;3945;48.952;9.506;2022-09-03T11:09:13;97652.31;;;27.10;44.39
7802;BME280;3945;48.952;9.506;2022-09-03T11:11:43;97648.78;;;27.09;44.89
7802;BME280;3945;48.952;9.506;2022-09-03T11:14:11;97650.34;;;27.26;46.09
7802;BME280;3945;48.952;9.506;2022-09-03T11:16:40;97630.91;;;27.31;44.48
7802;BME280;3945;48.952;9.506;2022-09-03T11:19:10;97641.78;;;27.28;44.97
7802;BME280;3945;48.952;9.506;2022-09-03T11:21:39;97628.47;;;27.26;45.64
7802;BME280;3945;48.952;9.506;2022-09-03T11:24:10;97627.34;;;27.27;45.54
7802;BME280;3945;48.952;9.506;2022-09-03T11:26:38;97628.13;;;27.28;45.95
7802;BME280;3945;48.952;9.506;2022-09-03T11:29:06;97617.03;;;27.20;45.74
7802;BME280;3945;48.952;9.506;2022-09-03T11:31:37;97621.75;;;27.04;45.84
7802;BME280;3945;48.952;9.506;2022-09-03T11:34:14;97616.75;;;26.91;45.84
7802;BME280;3945;48.952;9.506;2022-09-03T11:36:41;97617.63;;;26.79;45.59
7802;BME280;3945;48.952;9.506;2022-09-03T11:39:17;97617.19;;;26.77;46.42
7802;BME280;3945;48.952;9.506;2022-09-03T11:41:44;97615.13;;;26.74;46.35
7802;BME280;3945;48.952;9.506;2022-09-03T11:44:21;97616.13;;;26.66;46.40
7802;BME280;3945;48.952;9.506;2022-09-03T11:46:53;97617.47;;;26.56;47.02
7802;BME280;3945;48.952;9.506;2022-09-03T11:49:26;97609.16;;;26.53;47.07
7802;BME280;3945;48.952;9.506;2022-09-03T11:51:55;97612.34;;;26.55;47.64
7802;BME280;3945;48.952;9.506;2022-09-03T11:54:23;97615.59;;;26.60;47.27
7802;BME280;3945;48.952;9.506;2022-09-03T11:57:01;97612.06;;;26.60;47.42
7802;BME280;3945;48.952;9.506;2022-09-03T11:59:28;97620.34;;;26.63;47.46
7802;BME280;3945;48.952;9.506;2022-09-03T12:01:55;97621.41;;;26.59;46.89
7802;BME280;3945;48.952;9.506;2022-09-03T12:04:23;97625.72;;;26.60;47.09
7802;BME280;3945;48.952;9.506;2022-09-03T12:07:05;97626.00;;;26.55;47.15
7802;BME280;3945;48.952;9.506;2022-09-03T12:09:45;97633.31;;;26.51;47.43
7802;BME280;3945;48.952;9.506;2022-09-03T12:12:21;97639.47;;;26.48;47.15
7802;BME280;3945;48.952;9.506;2022-09-03T12:14:54;97647.53;;;26.44;47.02
7802;BME280;3945;48.952;9.506;2022-09-03T12:17:25;97643.75;;;26.33;48.20
7802;BME280;3945;48.952;9.506;2022-09-03T12:19:55;97646.03;;;26.31;47.65
7802;BME280;3945;48.952;9.506;2022-09-03T12:22:24;97636.66;;;26.16;47.54
7802;BME280;3945;48.952;9.506;2022-09-03T12:24:52;97632.94;;;26.09;48.01
7802;BME280;3945;48.952;9.506;2022-09-03T12:27:19;97637.06;;;26.02;47.87
7802;BME280;3945;48.952;9.506;2022-09-03T12:29:52;97631.00;;;25.93;48.64
7802;BME280;3945;48.952;9.506;2022-09-03T12:32:22;97624.91;;;25.84;48.98
7802;BME280;3945;48.952;9.506;2022-09-03T12:34:48;97631.44;;;25.67;49.45
7802;BME280;3945;48.952;9.506;2022-09-03T12:37:19;97643.16;;;25.56;49.60
7802;BME280;3945;48.952;9.506;2022-09-03T12:39:50;97643.97;;;25.44;49.64
7802;BME280;3945;48.952;9.506;2022-09-03T12:42:18;97647.19;;;25.34;49.90
7802;BME280;3945;48.952;9.506;2022-09-03T12:44:45;97657.53;;;25.28;50.59
7802;BME280;3945;48.952;9.506;2022-09-03T12:47:13;97655.00;;;25.23;51.21
7802;BME280;3945;48.952;9.506;2022-09-03T12:49:41;97668.88;;;25.18;51.14
7802;BME280;3945;48.952;9.506;2022-09-03T12:52:10;97666.81;;;25.15;51.44
7802;BME280;3945;48.952;9.506;2022-09-03T12:54:41;97676.81;;;25.11;51.76
7802;BME280;3945;48.952;9.506;2022-09-03T12:57:13;97671.16;;;25.04;51.92
7802;BME280;3945;48.952;9.506;2022-09-03T12:59:44;97668.31;;;25.01;52.31
7802;BME280;3945;48.952;9.506;2022-09-03T13:02:14;97669.56;;;24.91;52.14
7802;BME280;3945;48.952;9.506;2022-09-03T13:04:42;97672.38;;;24.82;52.21
7802;BME280;3945;48.952;9.506;2022-09-03T13:07:10;97670.56;;;24.74;52.46
7802;BME280;3945;48.952;9.506;2022-09-03T13:09:38;97660.56;;;24.66;52.57
7802;BME280;3945;48.952;9.506;2022-09-03T13:12:05;97658.63;;;24.55;52.95
7802;BME280;3945;48.952;9.506;2022-09-03T13:14:42;97659.94;;;24.36;54.19
7802;BME280;3945;48.952;9.506;2022-09-03T13:17:15;97683.44;;;23.87;56.40
7802;BME280;3945;48.952;9.506;2022-09-03T13:19:48;97683.19;;;23.30;58.51
7802;BME280;3945;48.952;9.506;2022-09-03T13:22:18;97693.25;;;23.00;60.47
7802;BME280;3945;48.952;9.506;2022-09-03T13:24:52;97686.78;;;22.84;62.29
7802;BME280;3945;48.952;9.506;2022-09-03T13:27:21;97693.38;;;22.66;63.22
7802;BME280;3945;48.952;9.506;2022-09-03T13:29:55;97690.56;;;22.53;65.19
7802;BME280;3945;48.952;9.506;2022-09-03T13:32:25;97698.91;;;22.40;65.50